createdAt,value
2018-07-08T00:00:23.465Z,1023.97
2018-07-08T00:00:49.056Z,1024.01
2018-07-08T00:01:14.613Z,1024
2018-07-08T00:01:40.198Z,1024
2018-07-08T00:02:05.757Z,1023.99
2018-07-08T00:02:31.332Z,1023.98
2018-07-08T00:02:56.901Z,1024
2018-07-08T00:03:22.473Z,1023.97
2018-07-08T00:03:48.041Z,1023.98
2018-07-08T00:04:13.601Z,1024.02
2018-07-08T00:04:39.175Z,1023.97
2018-07-08T00:05:04.754Z,1023.98
2018-07-08T00:05:30.354Z,1024
2018-07-08T00:05:55.943Z,1024.01
2018-07-08T00:06:21.527Z,1023.98
2018-07-08T00:06:47.085Z,1024.02
2018-07-08T00:07:12.678Z,1024.04
2018-07-08T00:07:38.251Z,1023.98
2018-07-08T00:08:03.828Z,1024.02
2018-07-08T00:08:29.388Z,1024.01
2018-07-08T00:08:54.952Z,1024
2018-07-08T00:09:20.552Z,1023.99
2018-07-08T00:09:46.136Z,1024
2018-07-08T00:10:11.714Z,1024.02
2018-07-08T00:10:37.280Z,1024
2018-07-08T00:11:02.857Z,1023.97
2018-07-08T00:11:28.444Z,1024.01
2018-07-08T00:11:54.014Z,1024
2018-07-08T00:12:19.573Z,1023.97
2018-07-08T00:12:45.172Z,1023.99
2018-07-08T00:13:10.775Z,1024
2018-07-08T00:13:36.357Z,1023.99
2018-07-08T00:14:01.948Z,1023.98
2018-07-08T00:14:27.552Z,1023.96
2018-07-08T00:14:53.134Z,1023.95
2018-07-08T00:15:18.729Z,1023.95
2018-07-08T00:15:44.279Z,1023.95
2018-07-08T00:16:09.856Z,1023.98
2018-07-08T00:16:35.442Z,1023.97
2018-07-08T00:17:01.019Z,1023.95
2018-07-08T00:17:26.563Z,1023.97
2018-07-08T00:17:52.182Z,1023.95
2018-07-08T00:18:17.746Z,1023.95
2018-07-08T00:18:43.323Z,1023.97
2018-07-08T00:19:08.895Z,1023.97
2018-07-08T00:19:34.450Z,1023.98
2018-07-08T00:20:00.054Z,1024.01
2018-07-08T00:20:25.666Z,1023.97
2018-07-08T00:20:51.251Z,1023.98
2018-07-08T00:21:16.804Z,1023.96
2018-07-08T00:21:42.370Z,1024
2018-07-08T00:22:07.949Z,1023.98
2018-07-08T00:22:33.526Z,1024
2018-07-08T00:22:59.120Z,1024.01
2018-07-08T00:23:24.687Z,1023.97
2018-07-08T00:23:50.243Z,1024.01
2018-07-08T00:24:15.822Z,1024.01
2018-07-08T00:24:41.394Z,1023.98
2018-07-08T00:25:06.966Z,1023.99
2018-07-08T00:25:32.539Z,1023.96
2018-07-08T00:25:58.116Z,1023.95
2018-07-08T00:26:23.707Z,1023.97
2018-07-08T00:26:49.289Z,1023.99
2018-07-08T00:27:14.848Z,1024
2018-07-08T00:27:40.435Z,1023.98
2018-07-08T00:28:06.012Z,1023.97
2018-07-08T00:28:31.592Z,1023.97
2018-07-08T00:28:57.146Z,1023.99
2018-07-08T00:29:22.733Z,1023.95
2018-07-08T00:29:48.300Z,1023.92
2018-07-08T00:30:13.879Z,1023.87
2018-07-08T00:30:39.445Z,1023.95
2018-07-08T00:31:05.039Z,1023.91
2018-07-08T00:31:30.638Z,1023.92
2018-07-08T00:31:56.200Z,1023.95
2018-07-08T00:32:21.753Z,1023.95
2018-07-08T00:32:47.342Z,1023.94
2018-07-08T00:33:12.923Z,1023.95
2018-07-08T00:33:38.487Z,1023.91
2018-07-08T00:34:04.048Z,1023.94
2018-07-08T00:34:29.635Z,1023.94
2018-07-08T00:34:55.199Z,1023.93
2018-07-08T00:35:20.781Z,1023.92
2018-07-08T00:35:46.361Z,1023.94
2018-07-08T00:36:11.936Z,1023.94
2018-07-08T00:36:37.507Z,1023.93
2018-07-08T00:37:03.063Z,1023.94
2018-07-08T00:37:28.634Z,1023.97
2018-07-08T00:37:54.208Z,1023.97
2018-07-08T00:38:19.812Z,1023.98
2018-07-08T00:38:45.405Z,1023.96
2018-07-08T00:39:10.955Z,1024
2018-07-08T00:39:36.529Z,1024.01
2018-07-08T00:40:02.135Z,1023.96
2018-07-08T00:40:27.738Z,1024.03
2018-07-08T00:40:53.309Z,1023.97
2018-07-08T00:41:18.904Z,1024.01
2018-07-08T00:41:44.490Z,1024.01
2018-07-08T00:42:53.270Z,1023.97
2018-07-08T00:43:18.838Z,1023.99
2018-07-08T00:43:44.422Z,1023.97
2018-07-08T00:44:10.017Z,1023.95
2018-07-08T00:44:35.564Z,1023.98
2018-07-08T00:45:01.128Z,1023.95
2018-07-08T00:45:26.689Z,1024
2018-07-08T00:45:52.246Z,1023.95
2018-07-08T00:46:17.837Z,1023.95
2018-07-08T00:46:43.447Z,1023.96
2018-07-08T00:47:09.041Z,1023.95
2018-07-08T00:47:34.621Z,1023.97
2018-07-08T00:48:00.188Z,1023.97
2018-07-08T00:48:25.741Z,1023.99
2018-07-08T00:48:51.322Z,1023.98
2018-07-08T00:49:16.895Z,1023.97
2018-07-08T00:49:42.515Z,1024
2018-07-08T00:50:08.114Z,1023.98
2018-07-08T00:50:33.668Z,1024
2018-07-08T00:50:59.249Z,1024
2018-07-08T00:51:24.838Z,1024
2018-07-08T00:51:50.372Z,1024.04
2018-07-08T00:52:15.946Z,1024.03
2018-07-08T00:52:41.542Z,1024.04
2018-07-08T00:53:07.110Z,1024.05
2018-07-08T00:53:32.663Z,1024.1
2018-07-08T00:53:58.240Z,1024.03
2018-07-08T00:54:23.803Z,1024.03
2018-07-08T00:54:49.363Z,1024.08
2018-07-08T00:55:14.933Z,1024.07
2018-07-08T00:55:40.530Z,1024.05
2018-07-08T00:56:06.089Z,1024.09
2018-07-08T00:56:31.653Z,1024.11
2018-07-08T00:56:57.197Z,1024.08
2018-07-08T00:57:22.783Z,1024.09
2018-07-08T00:57:48.348Z,1024.09
2018-07-08T00:58:13.933Z,1024.12
2018-07-08T00:58:39.494Z,1024.1
2018-07-08T00:59:05.046Z,1024.08
2018-07-08T00:59:30.644Z,1024.12
2018-07-08T00:59:56.202Z,1024.1
2018-07-08T01:00:21.794Z,1024.1
2018-07-08T01:00:47.358Z,1024.08
2018-07-08T01:01:12.957Z,1024.13
2018-07-08T01:01:38.570Z,1024.14
2018-07-08T01:02:04.134Z,1024.08
2018-07-08T01:02:29.712Z,1024.1
2018-07-08T01:02:55.285Z,1024.09
2018-07-08T01:03:20.855Z,1024.1
2018-07-08T01:03:46.447Z,1024.11
2018-07-08T01:04:12.031Z,1024.11
2018-07-08T01:04:37.614Z,1024.07
2018-07-08T01:05:03.201Z,1024.08
2018-07-08T01:05:28.788Z,1024.05
2018-07-08T01:05:54.362Z,1024.06
2018-07-08T01:06:19.936Z,1024.06
2018-07-08T01:06:45.500Z,1024.01
2018-07-08T01:07:11.107Z,1024.02
2018-07-08T01:07:36.694Z,1024
2018-07-08T01:08:02.250Z,1024.03
2018-07-08T01:08:27.829Z,1024.01
2018-07-08T01:08:53.402Z,1024.03
2018-07-08T01:09:18.940Z,1023.97
2018-07-08T01:09:44.527Z,1023.98
2018-07-08T01:10:10.116Z,1023.96
2018-07-08T01:10:35.675Z,1023.99
2018-07-08T01:11:01.227Z,1023.95
2018-07-08T01:11:26.792Z,1023.98
2018-07-08T01:11:52.369Z,1023.99
2018-07-08T01:12:17.933Z,1023.99
2018-07-08T01:12:43.527Z,1023.93
2018-07-08T01:13:09.090Z,1023.98
2018-07-08T01:13:34.692Z,1023.99
2018-07-08T01:14:00.256Z,1023.92
2018-07-08T01:14:25.818Z,1023.94
2018-07-08T01:14:51.394Z,1023.94
2018-07-08T01:15:16.952Z,1023.94
2018-07-08T01:15:42.530Z,1023.91
2018-07-08T01:16:08.102Z,1023.93
2018-07-08T01:16:33.683Z,1023.92
2018-07-08T01:16:59.240Z,1023.94
2018-07-08T01:17:24.824Z,1023.93
2018-07-08T01:17:50.386Z,1023.96
2018-07-08T01:18:15.969Z,1023.97
2018-07-08T01:18:41.525Z,1023.95
2018-07-08T01:19:07.097Z,1024
2018-07-08T01:19:32.646Z,1023.96
2018-07-08T01:19:58.234Z,1023.95
2018-07-08T01:20:23.819Z,1024
2018-07-08T01:20:49.376Z,1023.93
2018-07-08T01:21:14.932Z,1023.97
2018-07-08T01:21:40.508Z,1024
2018-07-08T01:22:06.078Z,1023.95
2018-07-08T01:22:31.659Z,1023.98
2018-07-08T01:22:57.224Z,1023.95
2018-07-08T01:23:22.782Z,1023.98
2018-07-08T01:23:48.363Z,1023.95
2018-07-08T01:24:13.942Z,1023.94
2018-07-08T01:24:39.513Z,1023.95
2018-07-08T01:25:05.080Z,1023.97
2018-07-08T01:25:30.692Z,1023.97
2018-07-08T01:25:56.268Z,1023.99
2018-07-08T01:26:21.858Z,1023.97
2018-07-08T01:26:47.417Z,1023.95
2018-07-08T01:27:12.991Z,1023.97
2018-07-08T01:27:38.562Z,1023.91
2018-07-08T01:28:04.121Z,1023.96
2018-07-08T01:28:29.673Z,1023.92
2018-07-08T01:28:55.258Z,1023.94
2018-07-08T01:29:20.820Z,1023.93
2018-07-08T01:29:46.384Z,1023.93
2018-07-08T01:30:11.970Z,1023.93
2018-07-08T01:30:37.536Z,1023.95
2018-07-08T01:31:03.101Z,1023.97
2018-07-08T01:31:28.662Z,1023.94
2018-07-08T01:31:54.228Z,1023.95
2018-07-08T01:32:19.849Z,1023.94
2018-07-08T01:32:45.398Z,1023.94
2018-07-08T01:33:10.979Z,1023.94
2018-07-08T01:33:36.552Z,1023.93
2018-07-08T01:34:02.114Z,1023.94
2018-07-08T01:34:27.677Z,1023.95
2018-07-08T01:34:53.262Z,1023.95
2018-07-08T01:35:18.838Z,1023.94
2018-07-08T01:35:44.414Z,1023.94
2018-07-08T01:36:09.988Z,1023.95
2018-07-08T01:36:35.541Z,1023.96
2018-07-08T01:37:01.097Z,1023.97
2018-07-08T01:37:26.686Z,1023.97
2018-07-08T01:37:52.262Z,1023.97
2018-07-08T01:38:17.840Z,1023.98
2018-07-08T01:38:43.406Z,1023.99
2018-07-08T01:39:08.990Z,1023.99
2018-07-08T01:39:34.556Z,1024
2018-07-08T01:40:00.110Z,1024
2018-07-08T01:40:25.683Z,1024.03
2018-07-08T01:40:51.262Z,1023.98
2018-07-08T01:41:16.834Z,1023.99
2018-07-08T01:41:42.412Z,1023.94
2018-07-08T01:42:07.982Z,1024
2018-07-08T01:42:33.538Z,1023.99
2018-07-08T01:42:59.116Z,1023.98
2018-07-08T01:43:24.688Z,1023.98
2018-07-08T01:43:50.258Z,1023.97
2018-07-08T01:44:15.905Z,1024.04
2018-07-08T01:44:41.450Z,1023.97
2018-07-08T01:45:07.023Z,1023.99
2018-07-08T01:45:32.620Z,1023.99
2018-07-08T01:45:58.198Z,1023.98
2018-07-08T01:46:23.784Z,1023.99
2018-07-08T01:46:49.385Z,1023.97
2018-07-08T01:47:14.948Z,1023.97
2018-07-08T01:47:40.538Z,1023.97
2018-07-08T01:48:06.114Z,1023.95
2018-07-08T01:48:31.684Z,1023.94
2018-07-08T01:48:57.285Z,1023.93
2018-07-08T01:49:22.842Z,1023.95
2018-07-08T01:49:48.410Z,1023.97
2018-07-08T01:50:13.990Z,1023.96
2018-07-08T01:50:39.574Z,1023.91
2018-07-08T01:51:05.136Z,1023.95
2018-07-08T01:51:30.729Z,1023.93
2018-07-08T01:51:56.284Z,1023.92
2018-07-08T01:52:21.846Z,1023.93
2018-07-08T01:52:47.416Z,1023.91
2018-07-08T01:53:12.995Z,1023.91
2018-07-08T01:53:38.558Z,1023.9
2018-07-08T01:54:04.138Z,1023.97
2018-07-08T01:54:29.699Z,1023.87
2018-07-08T01:54:55.250Z,1023.94
2018-07-08T01:55:20.814Z,1023.95
2018-07-08T01:55:46.381Z,1023.96
2018-07-08T01:56:11.974Z,1023.97
2018-07-08T01:56:37.520Z,1023.98
2018-07-08T01:57:03.077Z,1023.93
2018-07-08T01:57:28.646Z,1023.97
2018-07-08T01:57:54.217Z,1023.93
2018-07-08T01:58:19.796Z,1023.97
2018-07-08T01:58:45.370Z,1023.97
2018-07-08T01:59:10.930Z,1023.94
2018-07-08T01:59:36.513Z,1023.97
2018-07-08T02:00:02.091Z,1023.97
2018-07-08T02:00:27.689Z,1023.99
2018-07-08T02:00:53.220Z,1023.95
2018-07-08T02:01:18.782Z,1023.97
2018-07-08T02:01:44.342Z,1023.98
2018-07-08T02:02:09.900Z,1023.97
2018-07-08T02:02:35.454Z,1024.01
2018-07-08T02:03:01.048Z,1023.96
2018-07-08T02:03:26.613Z,1024.03
2018-07-08T02:03:52.164Z,1023.94
2018-07-08T02:04:17.736Z,1023.96
2018-07-08T02:04:43.304Z,1023.97
2018-07-08T02:05:08.879Z,1023.97
2018-07-08T02:05:34.446Z,1023.99
2018-07-08T02:06:00.031Z,1023.99
2018-07-08T02:06:25.597Z,1023.98
2018-07-08T02:06:51.206Z,1023.99
2018-07-08T02:07:16.716Z,1023.99
2018-07-08T02:07:42.282Z,1023.95
2018-07-08T02:08:07.836Z,1023.95
2018-07-08T02:08:33.411Z,1023.94
2018-07-08T02:08:58.997Z,1023.92
2018-07-08T02:09:24.620Z,1023.92
2018-07-08T02:09:50.137Z,1023.92
2018-07-08T02:10:15.730Z,1023.91
2018-07-08T02:10:41.292Z,1023.9
2018-07-08T02:11:06.858Z,1023.91
2018-07-08T02:11:32.431Z,1023.93
2018-07-08T02:11:58.010Z,1023.88
2018-07-08T02:12:23.553Z,1023.89
2018-07-08T02:12:49.136Z,1023.88
2018-07-08T02:13:14.714Z,1023.91
2018-07-08T02:13:40.279Z,1023.9
2018-07-08T02:14:05.838Z,1023.87
2018-07-08T02:14:31.409Z,1023.92
2018-07-08T02:14:56.955Z,1023.88
2018-07-08T02:15:22.529Z,1023.92
2018-07-08T02:15:48.130Z,1023.94
2018-07-08T02:16:13.714Z,1023.93
2018-07-08T02:16:39.287Z,1023.92
2018-07-08T02:17:04.874Z,1023.9
2018-07-08T02:17:30.450Z,1023.91
2018-07-08T02:17:56.024Z,1023.91
2018-07-08T02:18:21.616Z,1023.88
2018-07-08T02:18:47.174Z,1023.91
2018-07-08T02:19:12.747Z,1023.9
2018-07-08T02:19:38.332Z,1023.9
2018-07-08T02:20:03.912Z,1023.88
2018-07-08T02:20:29.473Z,1023.92
2018-07-08T02:20:55.048Z,1023.9
2018-07-08T02:21:20.668Z,1023.85
2018-07-08T02:21:46.224Z,1023.87
2018-07-08T02:22:11.811Z,1023.84
2018-07-08T02:22:37.399Z,1023.86
2018-07-08T02:23:02.970Z,1023.87
2018-07-08T02:23:28.520Z,1023.84
2018-07-08T02:23:54.079Z,1023.85
2018-07-08T02:24:19.652Z,1023.87
2018-07-08T02:24:45.213Z,1023.87
2018-07-08T02:25:10.758Z,1023.89
2018-07-08T02:25:36.324Z,1023.91
2018-07-08T02:26:01.911Z,1023.91
2018-07-08T02:26:27.471Z,1023.93
2018-07-08T02:26:53.026Z,1023.94
2018-07-08T02:27:18.598Z,1023.94
2018-07-08T02:27:44.157Z,1023.95
2018-07-08T02:28:09.738Z,1023.96
2018-07-08T02:28:35.312Z,1023.93
2018-07-08T02:29:00.858Z,1023.98
2018-07-08T02:29:26.448Z,1023.95
2018-07-08T02:29:52.076Z,1023.94
2018-07-08T02:30:17.606Z,1023.9
2018-07-08T02:30:43.157Z,1023.92
2018-07-08T02:31:08.734Z,1023.93
2018-07-08T02:31:34.320Z,1023.92
2018-07-08T02:31:59.886Z,1023.92
2018-07-08T02:32:25.472Z,1023.94
2018-07-08T02:32:51.033Z,1023.97
2018-07-08T02:33:16.603Z,1023.97
2018-07-08T02:33:42.158Z,1023.95
2018-07-08T02:34:07.736Z,1023.98
2018-07-08T02:34:33.351Z,1023.96
2018-07-08T02:34:58.904Z,1024.01
2018-07-08T02:35:24.496Z,1024.03
2018-07-08T02:35:50.052Z,1023.98
2018-07-08T02:36:15.612Z,1023.99
2018-07-08T02:36:41.201Z,1024
2018-07-08T02:37:06.761Z,1023.99
2018-07-08T02:37:32.330Z,1024
2018-07-08T02:37:57.902Z,1024
2018-07-08T02:38:23.496Z,1024.03
2018-07-08T02:38:49.079Z,1023.99
2018-07-08T02:39:14.671Z,1024.03
2018-07-08T02:39:40.238Z,1024.01
2018-07-08T02:40:05.810Z,1024.06
2018-07-08T02:40:31.373Z,1024.05
2018-07-08T02:40:56.931Z,1024.08
2018-07-08T02:41:22.472Z,1024.07
2018-07-08T02:41:48.046Z,1024.09
2018-07-08T02:42:13.623Z,1024.1
2018-07-08T02:42:39.204Z,1024.06
2018-07-08T02:43:04.771Z,1024.09
2018-07-08T02:43:30.322Z,1024.08
2018-07-08T02:43:55.914Z,1024.04
2018-07-08T02:44:21.506Z,1024.07
2018-07-08T02:44:47.077Z,1024.04
2018-07-08T02:45:12.640Z,1024.11
2018-07-08T02:45:38.200Z,1024.07
2018-07-08T02:46:03.788Z,1024.09
2018-07-08T02:46:29.346Z,1024.09
2018-07-08T02:46:54.919Z,1024.13
2018-07-08T02:47:20.489Z,1024.09
2018-07-08T02:47:46.064Z,1024.09
2018-07-08T02:48:11.618Z,1024.06
2018-07-08T02:48:38.400Z,1024.07
2018-07-08T02:49:03.970Z,1024.1
2018-07-08T02:49:29.528Z,1024.09
2018-07-08T02:49:55.119Z,1024.07
2018-07-08T02:50:20.698Z,1024.07
2018-07-08T02:50:47.302Z,1024.08
2018-07-08T02:51:13.918Z,1024.08
2018-07-08T02:51:40.892Z,1024.08
2018-07-08T02:52:08.764Z,1024.09
2018-07-08T02:52:38.849Z,1024.08
2018-07-08T02:53:03.925Z,1024.12
2018-07-08T02:53:29.470Z,1024.08
2018-07-08T02:53:57.837Z,1024.1
2018-07-08T02:54:23.436Z,1024.15
2018-07-08T02:54:49.008Z,1024.12
2018-07-08T02:55:14.580Z,1024.12
2018-07-08T02:55:40.137Z,1024.14
2018-07-08T02:56:05.706Z,1024.14
2018-07-08T02:56:31.255Z,1024.1
2018-07-08T02:56:56.827Z,1024.14
2018-07-08T02:57:22.405Z,1024.13
2018-07-08T02:57:47.980Z,1024.15
2018-07-08T02:58:13.557Z,1024.11
2018-07-08T02:58:39.137Z,1024.13
2018-07-08T02:59:04.714Z,1024.08
2018-07-08T02:59:30.294Z,1024.09
2018-07-08T02:59:55.854Z,1024.1
2018-07-08T03:00:21.445Z,1024.12
2018-07-08T03:00:47.045Z,1024.09
2018-07-08T03:01:12.604Z,1024.12
2018-07-08T03:01:38.152Z,1024.13
2018-07-08T03:02:03.728Z,1024.11
2018-07-08T03:02:29.306Z,1024.11
2018-07-08T03:02:54.882Z,1024.15
2018-07-08T03:03:20.442Z,1024.09
2018-07-08T03:03:46.032Z,1024.13
2018-07-08T03:04:11.599Z,1024.17
2018-07-08T03:04:37.209Z,1024.14
2018-07-08T03:05:02.800Z,1024.14
2018-07-08T03:05:28.380Z,1024.14
2018-07-08T03:05:53.951Z,1024.15
2018-07-08T03:06:19.506Z,1024.13
2018-07-08T03:06:45.056Z,1024.22
2018-07-08T03:07:10.632Z,1024.12
2018-07-08T03:07:36.190Z,1024.17
2018-07-08T03:08:01.741Z,1024.19
2018-07-08T03:08:27.298Z,1024.19
2018-07-08T03:08:52.898Z,1024.17
2018-07-08T03:09:18.451Z,1024.23
2018-07-08T03:09:44.022Z,1024.16
2018-07-08T03:10:09.574Z,1024.19
2018-07-08T03:10:35.131Z,1024.15
2018-07-08T03:11:00.762Z,1024.17
2018-07-08T03:11:26.281Z,1024.18
2018-07-08T03:11:51.842Z,1024.15
2018-07-08T03:12:17.432Z,1024.15
2018-07-08T03:12:42.973Z,1024.14
2018-07-08T03:13:08.540Z,1024.16
2018-07-08T03:13:34.121Z,1024.15
2018-07-08T03:13:59.692Z,1024.12
2018-07-08T03:14:25.238Z,1024.15
2018-07-08T03:14:50.804Z,1024.11
2018-07-08T03:15:16.378Z,1024.11
2018-07-08T03:15:41.953Z,1024.18
2018-07-08T03:16:07.522Z,1024.15
2018-07-08T03:16:33.111Z,1024.12
2018-07-08T03:16:58.692Z,1024.15
2018-07-08T03:17:24.272Z,1024.17
2018-07-08T03:17:49.830Z,1024.18
2018-07-08T03:18:15.399Z,1024.16
2018-07-08T03:18:40.948Z,1024.16
2018-07-08T03:19:06.516Z,1024.15
2018-07-08T03:19:32.098Z,1024.19
2018-07-08T03:19:57.717Z,1024.16
2018-07-08T03:20:23.295Z,1024.17
2018-07-08T03:20:48.875Z,1024.18
2018-07-08T03:21:14.428Z,1024.18
2018-07-08T03:21:39.998Z,1024.17
2018-07-08T03:22:05.584Z,1024.16
2018-07-08T03:22:31.172Z,1024.18
2018-07-08T03:22:56.729Z,1024.18
2018-07-08T03:23:22.323Z,1024.14
2018-07-08T03:23:47.907Z,1024.18
2018-07-08T03:24:13.466Z,1024.18
2018-07-08T03:24:39.067Z,1024.13
2018-07-08T03:25:04.625Z,1024.18
2018-07-08T03:25:30.186Z,1024.14
2018-07-08T03:25:55.756Z,1024.15
2018-07-08T03:26:21.322Z,1024.15
2018-07-08T03:26:46.889Z,1024.14
2018-07-08T03:27:12.476Z,1024.14
2018-07-08T03:27:38.062Z,1024.18
2018-07-08T03:28:03.624Z,1024.13
2018-07-08T03:28:29.188Z,1024.15
2018-07-08T03:28:54.824Z,1024.17
2018-07-08T03:29:20.389Z,1024.14
2018-07-08T03:29:45.981Z,1024.16
2018-07-08T03:30:11.543Z,1024.17
2018-07-08T03:30:37.104Z,1024.18
2018-07-08T03:31:02.684Z,1024.17
2018-07-08T03:31:28.252Z,1024.19
2018-07-08T03:31:53.812Z,1024.22
2018-07-08T03:32:19.403Z,1024.2
2018-07-08T03:32:44.964Z,1024.22
2018-07-08T03:33:10.554Z,1024.26
2018-07-08T03:33:36.158Z,1024.19
2018-07-08T03:34:01.718Z,1024.24
2018-07-08T03:34:27.282Z,1024.22
2018-07-08T03:34:52.873Z,1024.21
2018-07-08T03:35:18.465Z,1024.19
2018-07-08T03:35:44.036Z,1024.23
2018-07-08T03:36:09.599Z,1024.22
2018-07-08T03:36:35.168Z,1024.24
2018-07-08T03:37:00.754Z,1024.26
2018-07-08T03:37:26.310Z,1024.19
2018-07-08T03:37:51.895Z,1024.2
2018-07-08T03:38:17.470Z,1024.23
2018-07-08T03:38:43.045Z,1024.2
2018-07-08T03:39:08.603Z,1024.26
2018-07-08T03:39:34.174Z,1024.19
2018-07-08T03:39:59.771Z,1024.22
2018-07-08T03:40:25.339Z,1024.19
2018-07-08T03:40:50.905Z,1024.23
2018-07-08T03:41:16.463Z,1024.2
2018-07-08T03:41:42.068Z,1024.19
2018-07-08T03:42:07.680Z,1024.21
2018-07-08T03:42:33.253Z,1024.2
2018-07-08T03:42:58.825Z,1024.18
2018-07-08T03:43:24.392Z,1024.23
2018-07-08T03:43:49.951Z,1024.22
2018-07-08T03:44:15.513Z,1024.2
2018-07-08T03:44:41.080Z,1024.2
2018-07-08T03:45:06.659Z,1024.25
2018-07-08T03:45:32.236Z,1024.21
2018-07-08T03:45:57.789Z,1024.22
2018-07-08T03:46:23.394Z,1024.21
2018-07-08T03:46:48.956Z,1024.19
2018-07-08T03:47:14.506Z,1024.21
2018-07-08T03:47:40.061Z,1024.23
2018-07-08T03:48:05.634Z,1024.23
2018-07-08T03:48:31.192Z,1024.22
2018-07-08T03:48:56.763Z,1024.18
2018-07-08T03:49:22.371Z,1024.23
2018-07-08T03:49:47.941Z,1024.21
2018-07-08T03:50:13.497Z,1024.21
2018-07-08T03:50:39.067Z,1024.23
2018-07-08T03:51:04.648Z,1024.23
2018-07-08T03:51:30.221Z,1024.23
2018-07-08T03:51:55.793Z,1024.26
2018-07-08T03:52:21.367Z,1024.25
2018-07-08T03:52:46.953Z,1024.26
2018-07-08T03:53:12.521Z,1024.28
2018-07-08T03:53:38.081Z,1024.29
2018-07-08T03:54:03.656Z,1024.26
2018-07-08T03:54:29.252Z,1024.31
2018-07-08T03:54:54.807Z,1024.27
2018-07-08T03:55:20.409Z,1024.25
2018-07-08T03:55:45.978Z,1024.24
2018-07-08T03:56:11.557Z,1024.26
2018-07-08T03:56:37.129Z,1024.29
2018-07-08T03:57:02.689Z,1024.27
2018-07-08T03:57:28.257Z,1024.27
2018-07-08T03:57:53.849Z,1024.32
2018-07-08T03:58:19.423Z,1024.26
2018-07-08T03:58:44.983Z,1024.28
2018-07-08T03:59:10.555Z,1024.3
2018-07-08T03:59:36.091Z,1024.28
2018-07-08T04:00:01.677Z,1024.24
2018-07-08T04:00:27.248Z,1024.29
2018-07-08T04:00:52.849Z,1024.32
2018-07-08T04:01:18.416Z,1024.25
2018-07-08T04:01:44.007Z,1024.29
2018-07-08T04:02:09.570Z,1024.29
2018-07-08T04:02:35.152Z,1024.27
2018-07-08T04:03:00.746Z,1024.28
2018-07-08T04:03:26.317Z,1024.27
2018-07-08T04:03:51.903Z,1024.28
2018-07-08T04:04:17.485Z,1024.26
2018-07-08T04:04:43.045Z,1024.24
2018-07-08T04:05:08.630Z,1024.2
2018-07-08T04:05:34.190Z,1024.24
2018-07-08T04:05:59.751Z,1024.2
2018-07-08T04:06:25.338Z,1024.25
2018-07-08T04:06:50.886Z,1024.22
2018-07-08T04:07:16.455Z,1024.23
2018-07-08T04:07:42.030Z,1024.24
2018-07-08T04:08:07.632Z,1024.27
2018-07-08T04:08:33.266Z,1024.22
2018-07-08T04:08:58.839Z,1024.24
2018-07-08T04:09:24.397Z,1024.21
2018-07-08T04:09:49.985Z,1024.23
2018-07-08T04:10:15.563Z,1024.22
2018-07-08T04:10:41.130Z,1024.23
2018-07-08T04:11:06.716Z,1024.27
2018-07-08T04:11:32.272Z,1024.19
2018-07-08T04:11:57.837Z,1024.22
2018-07-08T04:12:23.435Z,1024.24
2018-07-08T04:12:48.985Z,1024.22
2018-07-08T04:13:14.551Z,1024.22
2018-07-08T04:13:40.135Z,1024.16
2018-07-08T04:14:05.692Z,1024.24
2018-07-08T04:14:31.263Z,1024.21
2018-07-08T04:14:56.839Z,1024.23
2018-07-08T04:15:22.481Z,1024.18
2018-07-08T04:15:47.981Z,1024.23
2018-07-08T04:16:13.572Z,1024.24
2018-07-08T04:16:39.136Z,1024.21
2018-07-08T04:17:04.721Z,1024.19
2018-07-08T04:17:30.287Z,1024.21
2018-07-08T04:17:55.862Z,1024.21
2018-07-08T04:18:21.458Z,1024.21
2018-07-08T04:18:47.043Z,1024.21
2018-07-08T04:19:12.619Z,1024.26
2018-07-08T04:19:38.176Z,1024.26
2018-07-08T04:20:03.745Z,1024.28
2018-07-08T04:20:29.341Z,1024.25
2018-07-08T04:20:54.906Z,1024.24
2018-07-08T04:21:20.464Z,1024.25
2018-07-08T04:21:46.036Z,1024.27
2018-07-08T04:22:11.609Z,1024.29
2018-07-08T04:22:37.169Z,1024.27
2018-07-08T04:23:02.731Z,1024.24
2018-07-08T04:23:28.327Z,1024.26
2018-07-08T04:23:53.919Z,1024.27
2018-07-08T04:24:19.487Z,1024.25
2018-07-08T04:24:45.067Z,1024.29
2018-07-08T04:25:10.623Z,1024.27
2018-07-08T04:25:36.238Z,1024.29
2018-07-08T04:26:01.785Z,1024.28
2018-07-08T04:26:27.351Z,1024.29
2018-07-08T04:26:52.924Z,1024.3
2018-07-08T04:27:18.538Z,1024.34
2018-07-08T04:27:44.124Z,1024.31
2018-07-08T04:28:09.710Z,1024.34
2018-07-08T04:28:35.255Z,1024.36
2018-07-08T04:29:00.851Z,1024.37
2018-07-08T04:29:26.429Z,1024.34
2018-07-08T04:29:52.031Z,1024.34
2018-07-08T04:30:17.620Z,1024.33
2018-07-08T04:30:43.171Z,1024.36
2018-07-08T04:31:08.752Z,1024.36
2018-07-08T04:31:34.325Z,1024.35
2018-07-08T04:31:59.869Z,1024.37
2018-07-08T04:32:25.458Z,1024.33
2018-07-08T04:32:51.012Z,1024.35
2018-07-08T04:33:16.623Z,1024.34
2018-07-08T04:33:42.187Z,1024.38
2018-07-08T04:34:07.759Z,1024.35
2018-07-08T04:34:33.359Z,1024.34
2018-07-08T04:34:58.934Z,1024.37
2018-07-08T04:35:24.523Z,1024.37
2018-07-08T04:35:50.071Z,1024.38
2018-07-08T04:36:15.645Z,1024.34
2018-07-08T04:36:41.223Z,1024.38
2018-07-08T04:37:06.797Z,1024.4
2018-07-08T04:37:32.339Z,1024.42
2018-07-08T04:37:57.915Z,1024.38
2018-07-08T04:38:23.491Z,1024.43
2018-07-08T04:38:49.075Z,1024.44
2018-07-08T04:39:14.643Z,1024.46
2018-07-08T04:39:40.215Z,1024.47
2018-07-08T04:40:05.801Z,1024.4
2018-07-08T04:40:31.358Z,1024.45
2018-07-08T04:40:56.923Z,1024.46
2018-07-08T04:41:22.517Z,1024.45
2018-07-08T04:41:48.107Z,1024.48
2018-07-08T04:42:13.679Z,1024.44
2018-07-08T04:42:39.238Z,1024.46
2018-07-08T04:43:04.833Z,1024.48
2018-07-08T04:43:30.422Z,1024.47
2018-07-08T04:43:55.989Z,1024.43
2018-07-08T04:44:21.555Z,1024.43
2018-07-08T04:44:47.124Z,1024.46
2018-07-08T04:45:12.721Z,1024.49
2018-07-08T04:45:38.297Z,1024.45
2018-07-08T04:46:03.858Z,1024.47
2018-07-08T04:46:29.441Z,1024.47
2018-07-08T04:46:55.011Z,1024.49
2018-07-08T04:47:20.641Z,1024.49
2018-07-08T04:47:46.169Z,1024.43
2018-07-08T04:48:11.738Z,1024.49
2018-07-08T04:48:37.317Z,1024.49
2018-07-08T04:49:02.913Z,1024.48
2018-07-08T04:49:28.483Z,1024.48
2018-07-08T04:49:54.054Z,1024.48
2018-07-08T04:50:19.621Z,1024.51
2018-07-08T04:50:45.195Z,1024.54
2018-07-08T04:51:10.755Z,1024.52
2018-07-08T04:51:36.325Z,1024.57
2018-07-08T04:52:02.008Z,1024.54
2018-07-08T04:52:27.563Z,1024.55
2018-07-08T04:52:53.133Z,1024.58
2018-07-08T04:53:18.696Z,1024.57
2018-07-08T04:53:44.260Z,1024.6
2018-07-08T04:54:09.825Z,1024.57
2018-07-08T04:54:35.395Z,1024.59
2018-07-08T04:55:00.944Z,1024.58
2018-07-08T04:55:26.515Z,1024.59
2018-07-08T04:55:52.105Z,1024.57
2018-07-08T04:56:17.661Z,1024.6
2018-07-08T04:56:43.223Z,1024.6
2018-07-08T04:57:08.796Z,1024.56
2018-07-08T04:57:34.362Z,1024.65
2018-07-08T04:57:59.925Z,1024.63
2018-07-08T04:58:25.499Z,1024.6
2018-07-08T04:58:51.103Z,1024.63
2018-07-08T04:59:16.649Z,1024.64
2018-07-08T04:59:42.228Z,1024.64
2018-07-08T05:00:07.807Z,1024.62
2018-07-08T05:00:33.364Z,1024.65
2018-07-08T05:00:58.962Z,1024.65
2018-07-08T05:01:24.517Z,1024.66
2018-07-08T05:01:50.093Z,1024.67
2018-07-08T05:02:15.662Z,1024.7
2018-07-08T05:02:41.218Z,1024.67
2018-07-08T05:03:06.789Z,1024.64
2018-07-08T05:03:32.397Z,1024.69
2018-07-08T05:03:57.944Z,1024.67
2018-07-08T05:04:23.525Z,1024.64
2018-07-08T05:04:49.091Z,1024.65
2018-07-08T05:05:14.691Z,1024.65
2018-07-08T05:05:40.249Z,1024.66
2018-07-08T05:06:05.816Z,1024.63
2018-07-08T05:06:31.402Z,1024.64
2018-07-08T05:06:56.957Z,1024.68
2018-07-08T05:07:22.518Z,1024.63
2018-07-08T05:07:48.079Z,1024.66
2018-07-08T05:08:13.658Z,1024.67
2018-07-08T05:08:39.229Z,1024.62
2018-07-08T05:09:04.796Z,1024.68
2018-07-08T05:09:30.375Z,1024.68
2018-07-08T05:09:55.937Z,1024.63
2018-07-08T05:10:21.520Z,1024.67
2018-07-08T05:10:47.088Z,1024.62
2018-07-08T05:11:12.643Z,1024.6
2018-07-08T05:11:38.215Z,1024.64
2018-07-08T05:12:03.820Z,1024.63